sensor_id;sensor_type;location;lat;lon;timestamp;temperature;humidity
12726;DHT22;6427;49.754;6.106;2022-09-13T00:01:00;14.90;99.90
12726;DHT22;6427;49.754;6.106;2022-09-13T00:03:29;14.90;99.90
12726;DHT22;6427;49.754;6.106;2022-09-13T00:05:56;14.90;99.90
12726;DHT22;6427;49.754;6.106;2022-09-13T00:08:24;14.90;99.90
12726;DHT22;6427;49.754;6.106;2022-09-13T00:10:52;14.90;99.90
12726;DHT22;6427;49.754;6.106;2022-09-13T00:13:19;14.80;99.90
12726;DHT22;6427;49.754;6.106;2022-09-13T00:15:47;14.90;99.90
12726;DHT22;6427;49.754;6.106;2022-09-13T00:18:16;14.90;99.90
12726;DHT22;6427;49.754;6.106;2022-09-13T00:20:43;14.80;99.90
12726;DHT22;6427;49.754;6.106;2022-09-13T00:23:11;14.80;99.90
12726;DHT22;6427;49.754;6.106;2022-09-13T00:25:39;14.70;99.90
12726;DHT22;6427;49.754;6.106;2022-09-13T00:28:06;14.60;99.90
12726;DHT22;6427;49.754;6.106;2022-09-13T00:30:34;14.60;99.90
12726;DHT22;6427;49.754;6.106;2022-09-13T00:33:01;14.60;99.90
12726;DHT22;6427;49.754;6.106;2022-09-13T00:35:29;14.60;99.90
12726;DHT22;6427;49.754;6.106;2022-09-13T00:37:57;14.60;99.90
12726;DHT22;6427;49.754;6.106;2022-09-13T00:40:24;14.60;99.90
12726;DHT22;6427;49.754;6.106;2022-09-13T00:42:51;14.60;99.90
12726;DHT22;6427;49.754;6.106;2022-09-13T00:45:20;14.60;99.90
12726;DHT22;6427;49.754;6.106;2022-09-13T00:47:52;14.60;99.90
12726;DHT22;6427;49.754;6.106;2022-09-13T00:50:38;14.60;99.90
12726;DHT22;6427;49.754;6.106;2022-09-13T00:53:08;14.70;99.90
12726;DHT22;6427;49.754;6.106;2022-09-13T00:55:36;14.70;99.90
12726;DHT22;6427;49.754;6.106;2022-09-13T00:58:06;14.70;99.90
12726;DHT22;6427;49.754;6.106;2022-09-13T01:00:33;14.90;99.90
12726;DHT22;6427;49.754;6.106;2022-09-13T01:03:01;14.90;99.90
12726;DHT22;6427;49.754;6.106;2022-09-13T01:05:29;14.90;99.90
12726;DHT22;6427;49.754;6.106;2022-09-13T01:07:55;14.80;99.90
12726;DHT22;6427;49.754;6.106;2022-09-13T01:10:23;14.80;99.90
12726;DHT22;6427;49.754;6.106;2022-09-13T01:13:07;14.80;99.90
12726;DHT22;6427;49.754;6.106;2022-09-13T01:15:33;14.80;99.90
12726;DHT22;6427;49.754;6.106;2022-09-13T01:18:00;14.70;99.90
12726;DHT22;6427;49.754;6.106;2022-09-13T01:20:32;14.70;99.90
12726;DHT22;6427;49.754;6.106;2022-09-13T01:23:28;14.70;99.90
12726;DHT22;6427;49.754;6.106;2022-09-13T01:34:03;15.00;99.90
12726;DHT22;6427;49.754;6.106;2022-09-13T01:37:00;15.20;99.90
12726;DHT22;6427;49.754;6.106;2022-09-13T01:39:34;15.10;99.90
12726;DHT22;6427;49.754;6.106;2022-09-13T01:42:02;15.00;99.90
12726;DHT22;6427;49.754;6.106;2022-09-13T01:47:18;14.80;99.90
12726;DHT22;6427;49.754;6.106;2022-09-13T01:52:51;15.00;99.90
12726;DHT22;6427;49.754;6.106;2022-09-13T02:00:24;15.00;99.90
12726;DHT22;6427;49.754;6.106;2022-09-13T02:02:57;14.90;99.90
12726;DHT22;6427;49.754;6.106;2022-09-13T02:05:43;14.90;99.90
12726;DHT22;6427;49.754;6.106;2022-09-13T02:08:11;14.80;99.90
12726;DHT22;6427;49.754;6.106;2022-09-13T02:10:59;14.80;99.90
12726;DHT22;6427;49.754;6.106;2022-09-13T02:13:26;15.00;99.90
12726;DHT22;6427;49.754;6.106;2022-09-13T02:15:56;15.00;99.90
12726;DHT22;6427;49.754;6.106;2022-09-13T02:18:23;15.00;99.90
12726;DHT22;6427;49.754;6.106;2022-09-13T02:20:49;15.00;99.90
12726;DHT22;6427;49.754;6.106;2022-09-13T02:23:18;14.90;99.90
12726;DHT22;6427;49.754;6.106;2022-09-13T02:25:44;14.90;99.90
12726;DHT22;6427;49.754;6.106;2022-09-13T02:28:12;14.80;99.90
12726;DHT22;6427;49.754;6.106;2022-09-13T02:30:40;14.80;99.90
12726;DHT22;6427;49.754;6.106;2022-09-13T02:33:11;14.80;99.90
12726;DHT22;6427;49.754;6.106;2022-09-13T02:35:39;14.80;99.90
12726;DHT22;6427;49.754;6.106;2022-09-13T02:38:16;14.80;99.90
12726;DHT22;6427;49.754;6.106;2022-09-13T02:40:42;14.80;99.90
12726;DHT22;6427;49.754;6.106;2022-09-13T02:43:13;14.80;99.90
12726;DHT22;6427;49.754;6.106;2022-09-13T02:45:49;14.80;99.90
12726;DHT22;6427;49.754;6.106;2022-09-13T02:48:58;14.80;99.90
12726;DHT22;6427;49.754;6.106;2022-09-13T02:51:05;14.70;99.90
12726;DHT22;6427;49.754;6.106;2022-09-13T02:56:19;14.70;99.90
12726;DHT22;6427;49.754;6.106;2022-09-13T02:59:01;14.70;99.90
12726;DHT22;6427;49.754;6.106;2022-09-13T03:01:17;14.60;99.90
12726;DHT22;6427;49.754;6.106;2022-09-13T03:03:44;14.60;99.90
12726;DHT22;6427;49.754;6.106;2022-09-13T03:06:12;14.90;99.90
12726;DHT22;6427;49.754;6.106;2022-09-13T03:08:39;14.90;99.90
12726;DHT22;6427;49.754;6.106;2022-09-13T03:14:35;14.80;99.90
12726;DHT22;6427;49.754;6.106;2022-09-13T03:17:17;14.80;99.90
12726;DHT22;6427;49.754;6.106;2022-09-13T03:25:05;14.60;99.90
12726;DHT22;6427;49.754;6.106;2022-09-13T03:27:45;14.70;99.90
12726;DHT22;6427;49.754;6.106;2022-09-13T03:30:12;14.70;99.90
12726;DHT22;6427;49.754;6.106;2022-09-13T03:32:59;14.70;99.90
12726;DHT22;6427;49.754;6.106;2022-09-13T03:35:26;14.70;99.90
12726;DHT22;6427;49.754;6.106;2022-09-13T03:38:11;14.70;99.90
12726;DHT22;6427;49.754;6.106;2022-09-13T03:40:51;14.60;99.90
12726;DHT22;6427;49.754;6.106;2022-09-13T03:43:24;14.60;99.90
12726;DHT22;6427;49.754;6.106;2022-09-13T03:45:53;14.60;99.90
12726;DHT22;6427;49.754;6.106;2022-09-13T03:48:19;14.60;99.90
12726;DHT22;6427;49.754;6.106;2022-09-13T03:50:48;14.60;99.90
12726;DHT22;6427;49.754;6.106;2022-09-13T03:53:20;14.50;99.90
12726;DHT22;6427;49.754;6.106;2022-09-13T03:55:42;14.50;99.90
12726;DHT22;6427;49.754;6.106;2022-09-13T03:58:11;14.60;99.90
12726;DHT22;6427;49.754;6.106;2022-09-13T04:00:39;14.50;99.90
12726;DHT22;6427;49.754;6.106;2022-09-13T04:03:08;14.60;99.90
12726;DHT22;6427;49.754;6.106;2022-09-13T04:05:35;14.60;99.90
12726;DHT22;6427;49.754;6.106;2022-09-13T04:08:03;14.70;99.90
12726;DHT22;6427;49.754;6.106;2022-09-13T04:10:30;14.70;99.90
12726;DHT22;6427;49.754;6.106;2022-09-13T04:12:58;14.90;99.90
12726;DHT22;6427;49.754;6.106;2022-09-13T04:15:26;15.00;99.90
12726;DHT22;6427;49.754;6.106;2022-09-13T04:17:54;14.90;99.90
12726;DHT22;6427;49.754;6.106;2022-09-13T04:20:21;14.90;99.90
12726;DHT22;6427;49.754;6.106;2022-09-13T04:22:52;14.90;99.90
12726;DHT22;6427;49.754;6.106;2022-09-13T04:25:20;14.90;99.90
12726;DHT22;6427;49.754;6.106;2022-09-13T04:27:48;14.90;99.90
12726;DHT22;6427;49.754;6.106;2022-09-13T04:30:15;14.90;99.90
12726;DHT22;6427;49.754;6.106;2022-09-13T04:32:42;14.90;99.90
12726;DHT22;6427;49.754;6.106;2022-09-13T04:35:11;14.90;99.90
12726;DHT22;6427;49.754;6.106;2022-09-13T04:37:38;14.90;99.90
12726;DHT22;6427;49.754;6.106;2022-09-13T04:40:06;14.90;99.90
12726;DHT22;6427;49.754;6.106;2022-09-13T04:42:34;15.00;99.90
12726;DHT22;6427;49.754;6.106;2022-09-13T04:45:02;15.00;99.90
12726;DHT22;6427;49.754;6.106;2022-09-13T04:47:30;15.00;99.90
12726;DHT22;6427;49.754;6.106;2022-09-13T04:49:57;15.00;99.90
12726;DHT22;6427;49.754;6.106;2022-09-13T04:52:26;15.00;99.90
12726;DHT22;6427;49.754;6.106;2022-09-13T04:54:53;15.00;99.90
12726;DHT22;6427;49.754;6.106;2022-09-13T04:57:22;15.10;99.90
12726;DHT22;6427;49.754;6.106;2022-09-13T04:59:49;15.10;99.90
12726;DHT22;6427;49.754;6.106;2022-09-13T05:02:17;15.10;99.90
12726;DHT22;6427;49.754;6.106;2022-09-13T05:04:44;15.10;99.90
12726;DHT22;6427;49.754;6.106;2022-09-13T05:07:12;15.10;99.90
12726;DHT22;6427;49.754;6.106;2022-09-13T05:09:39;15.10;99.90
12726;DHT22;6427;49.754;6.106;2022-09-13T05:12:08;15.20;99.90
12726;DHT22;6427;49.754;6.106;2022-09-13T05:14:35;15.10;99.90
12726;DHT22;6427;49.754;6.106;2022-09-13T05:17:03;15.20;99.90
12726;DHT22;6427;49.754;6.106;2022-09-13T05:19:30;15.20;99.90
12726;DHT22;6427;49.754;6.106;2022-09-13T05:21:59;15.20;99.90
12726;DHT22;6427;49.754;6.106;2022-09-13T05:24:26;15.20;99.90
12726;DHT22;6427;49.754;6.106;2022-09-13T05:26:54;15.20;99.90
12726;DHT22;6427;49.754;6.106;2022-09-13T05:29:21;15.20;99.90
12726;DHT22;6427;49.754;6.106;2022-09-13T05:31:49;15.20;99.90
12726;DHT22;6427;49.754;6.106;2022-09-13T05:34:17;15.20;99.90
12726;DHT22;6427;49.754;6.106;2022-09-13T05:36:45;15.20;99.90
12726;DHT22;6427;49.754;6.106;2022-09-13T05:39:13;15.30;99.90
12726;DHT22;6427;49.754;6.106;2022-09-13T05:41:40;15.20;99.90
12726;DHT22;6427;49.754;6.106;2022-09-13T05:44:08;15.30;99.90
12726;DHT22;6427;49.754;6.106;2022-09-13T05:46:36;15.30;99.90
12726;DHT22;6427;49.754;6.106;2022-09-13T05:49:04;15.30;99.90
12726;DHT22;6427;49.754;6.106;2022-09-13T05:51:31;15.30;99.90
12726;DHT22;6427;49.754;6.106;2022-09-13T05:53:59;15.30;99.90
12726;DHT22;6427;49.754;6.106;2022-09-13T05:56:27;15.30;99.90
12726;DHT22;6427;49.754;6.106;2022-09-13T05:58:54;15.30;99.90
12726;DHT22;6427;49.754;6.106;2022-09-13T06:01:22;15.30;99.90
12726;DHT22;6427;49.754;6.106;2022-09-13T06:03:50;15.20;99.90
12726;DHT22;6427;49.754;6.106;2022-09-13T06:06:18;15.30;99.90
12726;DHT22;6427;49.754;6.106;2022-09-13T06:08:46;15.30;99.90
12726;DHT22;6427;49.754;6.106;2022-09-13T06:11:14;15.30;99.90
12726;DHT22;6427;49.754;6.106;2022-09-13T06:13:42;15.30;99.90
12726;DHT22;6427;49.754;6.106;2022-09-13T06:16:10;15.30;99.90
12726;DHT22;6427;49.754;6.106;2022-09-13T06:18:37;15.50;99.90
12726;DHT22;6427;49.754;6.106;2022-09-13T06:21:05;15.50;99.90
12726;DHT22;6427;49.754;6.106;2022-09-13T06:23:32;15.50;99.90
12726;DHT22;6427;49.754;6.106;2022-09-13T06:26:10;15.50;99.90
12726;DHT22;6427;49.754;6.106;2022-09-13T06:28:38;15.50;99.90
12726;DHT22;6427;49.754;6.106;2022-09-13T06:31:06;15.50;99.90
12726;DHT22;6427;49.754;6.106;2022-09-13T06:33:34;15.50;99.90
12726;DHT22;6427;49.754;6.106;2022-09-13T06:36:02;15.50;99.90
12726;DHT22;6427;49.754;6.106;2022-09-13T06:38:29;15.50;99.90
12726;DHT22;6427;49.754;6.106;2022-09-13T06:41:03;15.60;99.90
12726;DHT22;6427;49.754;6.106;2022-09-13T06:43:30;15.60;99.90
12726;DHT22;6427;49.754;6.106;2022-09-13T06:46:07;15.70;99.90
12726;DHT22;6427;49.754;6.106;2022-09-13T06:48:31;15.70;99.90
12726;DHT22;6427;49.754;6.106;2022-09-13T06:50:59;15.80;99.90
12726;DHT22;6427;49.754;6.106;2022-09-13T06:53:26;16.10;99.90
12726;DHT22;6427;49.754;6.106;2022-09-13T06:56:06;16.20;99.90
12726;DHT22;6427;49.754;6.106;2022-09-13T06:58:33;16.30;99.90
12726;DHT22;6427;49.754;6.106;2022-09-13T07:03:43;16.60;99.90
12726;DHT22;6427;49.754;6.106;2022-09-13T07:06:14;16.60;99.90
12726;DHT22;6427;49.754;6.106;2022-09-13T07:08:41;16.60;99.90
12726;DHT22;6427;49.754;6.106;2022-09-13T07:11:09;16.60;99.90
12726;DHT22;6427;49.754;6.106;2022-09-13T07:13:36;16.70;99.90
12726;DHT22;6427;49.754;6.106;2022-09-13T07:16:09;16.70;99.90
12726;DHT22;6427;49.754;6.106;2022-09-13T07:18:35;16.70;99.90
12726;DHT22;6427;49.754;6.106;2022-09-13T07:21:04;16.80;99.90
12726;DHT22;6427;49.754;6.106;2022-09-13T07:23:31;16.80;99.90
12726;DHT22;6427;49.754;6.106;2022-09-13T07:25:58;16.90;99.90
12726;DHT22;6427;49.754;6.106;2022-09-13T07:28:25;16.80;99.90
12726;DHT22;6427;49.754;6.106;2022-09-13T07:30:54;16.90;99.90
12726;DHT22;6427;49.754;6.106;2022-09-13T07:33:21;17.00;99.90
12726;DHT22;6427;49.754;6.106;2022-09-13T07:35:59;17.10;99.90
12726;DHT22;6427;49.754;6.106;2022-09-13T07:38:16;17.10;99.90
12726;DHT22;6427;49.754;6.106;2022-09-13T07:40:51;17.20;99.90
12726;DHT22;6427;49.754;6.106;2022-09-13T07:43:11;17.30;99.90
12726;DHT22;6427;49.754;6.106;2022-09-13T07:45:40;17.30;99.90
12726;DHT22;6427;49.754;6.106;2022-09-13T07:48:07;17.30;99.90
12726;DHT22;6427;49.754;6.106;2022-09-13T07:50:35;17.40;99.90
12726;DHT22;6427;49.754;6.106;2022-09-13T07:53:02;17.70;99.90
12726;DHT22;6427;49.754;6.106;2022-09-13T07:55:30;17.90;99.90
12726;DHT22;6427;49.754;6.106;2022-09-13T07:57:57;17.90;99.90
12726;DHT22;6427;49.754;6.106;2022-09-13T08:00:25;18.20;99.90
12726;DHT22;6427;49.754;6.106;2022-09-13T08:02:53;18.20;99.90
12726;DHT22;6427;49.754;6.106;2022-09-13T08:05:20;18.20;99.90
12726;DHT22;6427;49.754;6.106;2022-09-13T08:07:48;18.10;99.90
12726;DHT22;6427;49.754;6.106;2022-09-13T08:10:15;18.10;99.90
12726;DHT22;6427;49.754;6.106;2022-09-13T08:12:43;18.10;99.90
12726;DHT22;6427;49.754;6.106;2022-09-13T08:15:11;18.10;99.90
12726;DHT22;6427;49.754;6.106;2022-09-13T08:17:40;18.10;99.90
12726;DHT22;6427;49.754;6.106;2022-09-13T08:20:07;18.10;99.90
12726;DHT22;6427;49.754;6.106;2022-09-13T08:22:35;18.10;99.90
12726;DHT22;6427;49.754;6.106;2022-09-13T08:25:02;18.00;99.90
12726;DHT22;6427;49.754;6.106;2022-09-13T08:27:30;18.00;99.90
12726;DHT22;6427;49.754;6.106;2022-09-13T08:29:57;18.00;99.90
12726;DHT22;6427;49.754;6.106;2022-09-13T08:32:25;18.30;99.90
12726;DHT22;6427;49.754;6.106;2022-09-13T08:34:53;18.30;99.90
12726;DHT22;6427;49.754;6.106;2022-09-13T08:37:20;18.30;99.90
12726;DHT22;6427;49.754;6.106;2022-09-13T08:39:48;18.30;99.90
12726;DHT22;6427;49.754;6.106;2022-09-13T08:45:01;18.40;99.90
12726;DHT22;6427;49.754;6.106;2022-09-13T08:50:12;18.40;99.90
12726;DHT22;6427;49.754;6.106;2022-09-13T08:53:11;18.50;99.90
12726;DHT22;6427;49.754;6.106;2022-09-13T09:00:50;18.50;99.90
12726;DHT22;6427;49.754;6.106;2022-09-13T09:03:42;18.50;99.90
12726;DHT22;6427;49.754;6.106;2022-09-13T09:06:13;18.70;99.90
12726;DHT22;6427;49.754;6.106;2022-09-13T09:11:17;18.80;99.90
12726;DHT22;6427;49.754;6.106;2022-09-13T09:13:46;18.70;99.90
12726;DHT22;6427;49.754;6.106;2022-09-13T09:18:39;18.80;99.90
12726;DHT22;6427;49.754;6.106;2022-09-13T09:21:09;18.70;99.90
12726;DHT22;6427;49.754;6.106;2022-09-13T09:23:40;18.70;99.90
12726;DHT22;6427;49.754;6.106;2022-09-13T09:26:16;18.70;99.90
12726;DHT22;6427;49.754;6.106;2022-09-13T09:29:10;18.70;99.90
12726;DHT22;6427;49.754;6.106;2022-09-13T09:31:24;18.90;99.90
12726;DHT22;6427;49.754;6.106;2022-09-13T09:39:06;18.90;99.90
12726;DHT22;6427;49.754;6.106;2022-09-13T09:41:33;18.90;99.90
12726;DHT22;6427;49.754;6.106;2022-09-13T09:44:19;19.00;99.90
12726;DHT22;6427;49.754;6.106;2022-09-13T09:46:46;19.00;99.90
12726;DHT22;6427;49.754;6.106;2022-09-13T09:49:20;19.30;99.90
12726;DHT22;6427;49.754;6.106;2022-09-13T09:52:06;19.60;99.90
12726;DHT22;6427;49.754;6.106;2022-09-13T09:54:33;19.60;99.90
12726;DHT22;6427;49.754;6.106;2022-09-13T09:57:00;19.60;99.90
12726;DHT22;6427;49.754;6.106;2022-09-13T09:59:29;19.60;99.90
12726;DHT22;6427;49.754;6.106;2022-09-13T10:01:55;19.60;99.90
12726;DHT22;6427;49.754;6.106;2022-09-13T10:04:23;19.70;99.90
12726;DHT22;6427;49.754;6.106;2022-09-13T10:07:06;19.90;99.90
12726;DHT22;6427;49.754;6.106;2022-09-13T10:09:19;20.20;99.90
12726;DHT22;6427;49.754;6.106;2022-09-13T10:11:52;20.20;99.90
12726;DHT22;6427;49.754;6.106;2022-09-13T10:14:26;20.20;99.90
12726;DHT22;6427;49.754;6.106;2022-09-13T10:17:24;20.20;99.90
12726;DHT22;6427;49.754;6.106;2022-09-13T10:19:52;20.20;99.90
12726;DHT22;6427;49.754;6.106;2022-09-13T10:22:18;20.30;99.90
12726;DHT22;6427;49.754;6.106;2022-09-13T10:24:46;20.40;99.90
12726;DHT22;6427;49.754;6.106;2022-09-13T10:27:29;20.50;99.90
12726;DHT22;6427;49.754;6.106;2022-09-13T10:29:53;20.70;99.90
12726;DHT22;6427;49.754;6.106;2022-09-13T10:32:20;20.80;99.90
12726;DHT22;6427;49.754;6.106;2022-09-13T10:34:47;20.90;99.90
12726;DHT22;6427;49.754;6.106;2022-09-13T10:37:16;21.00;99.90
12726;DHT22;6427;49.754;6.106;2022-09-13T10:39:53;21.20;99.90
12726;DHT22;6427;49.754;6.106;2022-09-13T10:42:23;21.50;99.90
12726;DHT22;6427;49.754;6.106;2022-09-13T10:44:54;21.80;99.90
12726;DHT22;6427;49.754;6.106;2022-09-13T10:47:43;21.80;99.90
12726;DHT22;6427;49.754;6.106;2022-09-13T10:49:52;21.80;99.90
12726;DHT22;6427;49.754;6.106;2022-09-13T10:52:32;21.90;99.90
12726;DHT22;6427;49.754;6.106;2022-09-13T10:57:50;22.10;99.90
12726;DHT22;6427;49.754;6.106;2022-09-13T11:00:38;22.10;99.90
12726;DHT22;6427;49.754;6.106;2022-09-13T11:03:20;22.10;99.90
12726;DHT22;6427;49.754;6.106;2022-09-13T11:06:01;22.30;99.90
12726;DHT22;6427;49.754;6.106;2022-09-13T11:13:47;22.40;99.90
12726;DHT22;6427;49.754;6.106;2022-09-13T11:26:49;22.70;99.90
12726;DHT22;6427;49.754;6.106;2022-09-13T11:35:11;22.70;99.90
12726;DHT22;6427;49.754;6.106;2022-09-13T11:40:27;22.70;99.90
12726;DHT22;6427;49.754;6.106;2022-09-13T11:43:02;22.70;99.90
12726;DHT22;6427;49.754;6.106;2022-09-13T11:45:28;22.70;99.90
12726;DHT22;6427;49.754;6.106;2022-09-13T11:56:15;22.80;99.90
12726;DHT22;6427;49.754;6.106;2022-09-13T12:01:12;22.80;99.90
12726;DHT22;6427;49.754;6.106;2022-09-13T12:04:00;22.80;99.90
12726;DHT22;6427;49.754;6.106;2022-09-13T12:06:34;22.80;99.90
12726;DHT22;6427;49.754;6.106;2022-09-13T12:09:15;22.80;99.90
12726;DHT22;6427;49.754;6.106;2022-09-13T12:11:42;22.80;99.90
12726;DHT22;6427;49.754;6.106;2022-09-13T12:14:13;22.80;99.90
12726;DHT22;6427;49.754;6.106;2022-09-13T12:16:51;22.80;99.90
12726;DHT22;6427;49.754;6.106;2022-09-13T12:19:46;22.80;99.90
12726;DHT22;6427;49.754;6.106;2022-09-13T12:22:14;22.90;99.90
12726;DHT22;6427;49.754;6.106;2022-09-13T12:24:52;22.90;99.90
12726;DHT22;6427;49.754;6.106;2022-09-13T12:30:18;23.00;99.90
12726;DHT22;6427;49.754;6.106;2022-09-13T12:32:45;22.90;99.90
12726;DHT22;6427;49.754;6.106;2022-09-13T12:35:23;23.00;99.90
12726;DHT22;6427;49.754;6.106;2022-09-13T12:40:57;23.30;99.90
12726;DHT22;6427;49.754;6.106;2022-09-13T12:52:03;23.20;99.90
12726;DHT22;6427;49.754;6.106;2022-09-13T12:57:40;23.20;99.90
12726;DHT22;6427;49.754;6.106;2022-09-13T13:03:02;23.30;99.90
12726;DHT22;6427;49.754;6.106;2022-09-13T13:05:50;23.30;99.80
12726;DHT22;6427;49.754;6.106;2022-09-13T13:08:07;23.30;99.90
12726;DHT22;6427;49.754;6.106;2022-09-13T13:10:39;23.30;99.90
12726;DHT22;6427;49.754;6.106;2022-09-13T13:13:08;23.30;99.90
12726;DHT22;6427;49.754;6.106;2022-09-13T13:17:55;23.60;99.90
12726;DHT22;6427;49.754;6.106;2022-09-13T13:20:38;23.60;99.60
12726;DHT22;6427;49.754;6.106;2022-09-13T13:23:26;23.50;99.80
12726;DHT22;6427;49.754;6.106;2022-09-13T13:25:58;23.40;99.70
12726;DHT22;6427;49.754;6.106;2022-09-13T13:41:52;23.60;99.60
12726;DHT22;6427;49.754;6.106;2022-09-13T13:46:50;23.70;99.80
12726;DHT22;6427;49.754;6.106;2022-09-13T13:57:36;23.50;99.90
12726;DHT22;6427;49.754;6.106;2022-09-13T14:02:49;23.40;99.90
12726;DHT22;6427;49.754;6.106;2022-09-13T14:05:15;23.30;99.90
12726;DHT22;6427;49.754;6.106;2022-09-13T14:13:58;23.50;99.90
12726;DHT22;6427;49.754;6.106;2022-09-13T14:19:18;23.30;99.90
12726;DHT22;6427;49.754;6.106;2022-09-13T14:21:43;23.30;99.90
12726;DHT22;6427;49.754;6.106;2022-09-13T14:24:23;23.50;99.90
12726;DHT22;6427;49.754;6.106;2022-09-13T14:26:52;23.40;99.90
12726;DHT22;6427;49.754;6.106;2022-09-13T14:29:19;23.40;99.90
12726;DHT22;6427;49.754;6.106;2022-09-13T14:31:47;23.30;99.90
12726;DHT22;6427;49.754;6.106;2022-09-13T14:34:23;23.20;99.90
12726;DHT22;6427;49.754;6.106;2022-09-13T14:36:54;23.20;99.90
12726;DHT22;6427;49.754;6.106;2022-09-13T14:39:20;23.30;99.90
12726;DHT22;6427;49.754;6.106;2022-09-13T14:41:48;23.20;99.90
12726;DHT22;6427;49.754;6.106;2022-09-13T14:44:20;23.20;99.90
12726;DHT22;6427;49.754;6.106;2022-09-13T14:46:48;23.10;99.90
12726;DHT22;6427;49.754;6.106;2022-09-13T14:49:17;23.00;99.90
12726;DHT22;6427;49.754;6.106;2022-09-13T14:51:45;22.90;99.90
12726;DHT22;6427;49.754;6.106;2022-09-13T14:54:18;22.80;99.90
12726;DHT22;6427;49.754;6.106;2022-09-13T14:56:47;22.80;99.90
12726;DHT22;6427;49.754;6.106;2022-09-13T14:59:28;22.70;99.90
12726;DHT22;6427;49.754;6.106;2022-09-13T15:01:55;22.70;99.90
12726;DHT22;6427;49.754;6.106;2022-09-13T15:04:23;22.70;99.90
12726;DHT22;6427;49.754;6.106;2022-09-13T15:07:26;22.60;99.90
12726;DHT22;6427;49.754;6.106;2022-09-13T15:09:34;22.60;99.90
12726;DHT22;6427;49.754;6.106;2022-09-13T15:12:02;22.60;99.90
12726;DHT22;6427;49.754;6.106;2022-09-13T15:14:34;22.60;99.90
12726;DHT22;6427;49.754;6.106;2022-09-13T15:19:34;22.60;99.90
12726;DHT22;6427;49.754;6.106;2022-09-13T15:22:04;22.60;99.90
12726;DHT22;6427;49.754;6.106;2022-09-13T15:24:32;22.60;99.90
12726;DHT22;6427;49.754;6.106;2022-09-13T15:27:06;22.60;99.90
12726;DHT22;6427;49.754;6.106;2022-09-13T15:29:34;22.80;99.90
12726;DHT22;6427;49.754;6.106;2022-09-13T15:32:02;22.80;99.90
12726;DHT22;6427;49.754;6.106;2022-09-13T15:34:29;23.00;99.90
12726;DHT22;6427;49.754;6.106;2022-09-13T15:37:12;23.00;99.90
12726;DHT22;6427;49.754;6.106;2022-09-13T15:39:49;22.90;99.90
12726;DHT22;6427;49.754;6.106;2022-09-13T15:42:16;23.00;99.90
12726;DHT22;6427;49.754;6.106;2022-09-13T15:44:43;23.20;99.90
12726;DHT22;6427;49.754;6.106;2022-09-13T15:47:17;23.10;99.90
12726;DHT22;6427;49.754;6.106;2022-09-13T15:49:50;22.90;99.90
12726;DHT22;6427;49.754;6.106;2022-09-13T15:52:18;22.80;99.90
12726;DHT22;6427;49.754;6.106;2022-09-13T15:54:47;22.70;99.90
12726;DHT22;6427;49.754;6.106;2022-09-13T15:57:21;22.70;99.90
12726;DHT22;6427;49.754;6.106;2022-09-13T15:59:48;22.80;99.90
12726;DHT22;6427;49.754;6.106;2022-09-13T16:02:22;22.80;99.90
12726;DHT22;6427;49.754;6.106;2022-09-13T16:07:14;22.60;99.90
12726;DHT22;6427;49.754;6.106;2022-09-13T16:09:42;22.70;99.90
12726;DHT22;6427;49.754;6.106;2022-09-13T16:12:10;22.70;99.90
12726;DHT22;6427;49.754;6.106;2022-09-13T16:14:40;22.60;99.90
12726;DHT22;6427;49.754;6.106;2022-09-13T16:17:11;22.60;99.90
12726;DHT22;6427;49.754;6.106;2022-09-13T16:19:38;22.50;99.90
12726;DHT22;6427;49.754;6.106;2022-09-13T16:22:05;22.50;99.90
12726;DHT22;6427;49.754;6.106;2022-09-13T16:24:33;22.40;99.90
12726;DHT22;6427;49.754;6.106;2022-09-13T16:27:01;22.30;99.90
12726;DHT22;6427;49.754;6.106;2022-09-13T16:29:29;22.30;99.90
12726;DHT22;6427;49.754;6.106;2022-09-13T16:31:58;22.30;99.90
12726;DHT22;6427;49.754;6.106;2022-09-13T16:34:25;22.20;99.90
12726;DHT22;6427;49.754;6.106;2022-09-13T16:36:52;22.20;99.90
12726;DHT22;6427;49.754;6.106;2022-09-13T16:39:20;22.20;99.90
12726;DHT22;6427;49.754;6.106;2022-09-13T16:41:48;22.20;99.90
12726;DHT22;6427;49.754;6.106;2022-09-13T16:44:16;22.20;99.90
12726;DHT22;6427;49.754;6.106;2022-09-13T16:46:44;22.20;99.90
12726;DHT22;6427;49.754;6.106;2022-09-13T16:49:11;22.20;99.90
12726;DHT22;6427;49.754;6.106;2022-09-13T16:51:39;22.40;99.90
12726;DHT22;6427;49.754;6.106;2022-09-13T16:54:07;22.60;99.90
12726;DHT22;6427;49.754;6.106;2022-09-13T16:56:35;22.50;99.90
12726;DHT22;6427;49.754;6.106;2022-09-13T16:59:02;22.50;99.90
12726;DHT22;6427;49.754;6.106;2022-09-13T17:01:30;22.40;99.90
12726;DHT22;6427;49.754;6.106;2022-09-13T17:03:57;22.30;99.90
12726;DHT22;6427;49.754;6.106;2022-09-13T17:06:26;22.20;99.90
12726;DHT22;6427;49.754;6.106;2022-09-13T17:08:57;22.20;99.90
12726;DHT22;6427;49.754;6.106;2022-09-13T17:11:24;22.20;99.90
12726;DHT22;6427;49.754;6.106;2022-09-13T17:13:52;22.10;99.90
12726;DHT22;6427;49.754;6.106;2022-09-13T17:18:53;22.00;99.90
12726;DHT22;6427;49.754;6.106;2022-09-13T17:21:20;21.90;99.90
12726;DHT22;6427;49.754;6.106;2022-09-13T17:23:48;21.90;99.90
12726;DHT22;6427;49.754;6.106;2022-09-13T17:26:15;22.10;99.90
12726;DHT22;6427;49.754;6.106;2022-09-13T17:28:43;22.10;99.90
12726;DHT22;6427;49.754;6.106;2022-09-13T17:31:11;21.90;99.90
12726;DHT22;6427;49.754;6.106;2022-09-13T17:33:38;21.90;99.90
12726;DHT22;6427;49.754;6.106;2022-09-13T17:36:07;21.80;99.90
12726;DHT22;6427;49.754;6.106;2022-09-13T17:38:35;21.90;99.90
12726;DHT22;6427;49.754;6.106;2022-09-13T17:41:06;21.80;99.90
12726;DHT22;6427;49.754;6.106;2022-09-13T17:43:34;21.80;99.90
12726;DHT22;6427;49.754;6.106;2022-09-13T17:46:05;21.80;99.90
12726;DHT22;6427;49.754;6.106;2022-09-13T17:48:32;21.70;99.90
12726;DHT22;6427;49.754;6.106;2022-09-13T17:51:00;21.70;99.90
12726;DHT22;6427;49.754;6.106;2022-09-13T17:53:28;21.60;99.90
12726;DHT22;6427;49.754;6.106;2022-09-13T17:55:56;21.80;99.90
12726;DHT22;6427;49.754;6.106;2022-09-13T17:58:24;21.70;99.90
12726;DHT22;6427;49.754;6.106;2022-09-13T18:00:58;21.60;99.90
12726;DHT22;6427;49.754;6.106;2022-09-13T18:03:18;21.50;99.90
12726;DHT22;6427;49.754;6.106;2022-09-13T18:05:46;21.50;99.90
12726;DHT22;6427;49.754;6.106;2022-09-13T18:08:14;21.40;99.90
12726;DHT22;6427;49.754;6.106;2022-09-13T18:10:42;21.30;99.90
12726;DHT22;6427;49.754;6.106;2022-09-13T18:13:09;21.30;99.90
12726;DHT22;6427;49.754;6.106;2022-09-13T18:15:37;21.30;99.90
12726;DHT22;6427;49.754;6.106;2022-09-13T18:18:05;21.50;99.90
12726;DHT22;6427;49.754;6.106;2022-09-13T18:20:33;21.30;99.90
12726;DHT22;6427;49.754;6.106;2022-09-13T18:23:00;21.30;99.90
12726;DHT22;6427;49.754;6.106;2022-09-13T18:25:28;21.30;99.90
12726;DHT22;6427;49.754;6.106;2022-09-13T18:27:56;21.20;99.90
12726;DHT22;6427;49.754;6.106;2022-09-13T18:30:25;21.20;99.90
12726;DHT22;6427;49.754;6.106;2022-09-13T18:32:52;21.10;99.90
12726;DHT22;6427;49.754;6.106;2022-09-13T18:35:20;21.10;99.90
12726;DHT22;6427;49.754;6.106;2022-09-13T18:37:48;21.10;99.90
12726;DHT22;6427;49.754;6.106;2022-09-13T18:40:15;21.10;99.90